createdAt,value
2023-02-12T00:00:21.810Z,100933.84
2023-02-12T00:01:23.233Z,100936.73
2023-02-12T00:02:21.651Z,100932.61
2023-02-12T00:03:21.889Z,100931.1
2023-02-12T00:04:22.344Z,100938.69
2023-02-12T00:05:22.648Z,100946.49
2023-02-12T00:06:23.474Z,100946.56
2023-02-12T00:07:23.579Z,100952.58
2023-02-12T00:08:23.896Z,100953.71
2023-02-12T00:09:24.225Z,100951.62
2023-02-12T00:10:24.829Z,100950.7
2023-02-12T00:11:27.710Z,100952.77
2023-02-12T00:12:25.560Z,100957.34
2023-02-12T00:13:25.872Z,100963.51
2023-02-12T00:14:26.300Z,100962.77
2023-02-12T00:15:26.741Z,100960.43
2023-02-12T00:16:30.829Z,100962.16
2023-02-12T00:17:28.232Z,100964.4
2023-02-12T00:18:28.679Z,100964.97
2023-02-12T00:19:28.996Z,100962.88
2023-02-12T00:20:29.411Z,100965.95
2023-02-12T00:21:29.781Z,100966.45
2023-02-12T00:22:30.451Z,100969.02
2023-02-12T00:23:30.961Z,100967.81
2023-02-12T00:24:31.274Z,100967.75
2023-02-12T00:25:31.588Z,100970.69
2023-02-12T00:26:31.706Z,100969
2023-02-12T00:28:32.967Z,100967.3
2023-02-12T00:29:34.032Z,100973.05
2023-02-12T00:30:35.013Z,100966.99
2023-02-12T00:31:34.928Z,100968.64
2023-02-12T00:33:35.719Z,100978.05
2023-02-12T00:34:35.843Z,100977.31
2023-02-12T00:35:36.274Z,100978.32
2023-02-12T00:36:36.757Z,100979
2023-02-12T00:37:37.105Z,100978.63
2023-02-12T00:38:37.623Z,100982.66
2023-02-12T00:39:38.649Z,100986.65
2023-02-12T00:40:38.966Z,100987.39
2023-02-12T00:41:39.891Z,100987.84
2023-02-12T00:42:39.802Z,100993.84
2023-02-12T00:43:40.222Z,100996.98
2023-02-12T00:44:40.522Z,100999.59
2023-02-12T00:45:40.957Z,101004.27
2023-02-12T00:46:41.539Z,101005.32
2023-02-12T00:47:41.667Z,101006.1
2023-02-12T00:48:42.251Z,101004.65
2023-02-12T00:49:43.020Z,101001.01
2023-02-12T00:50:46.173Z,100993.58
2023-02-12T00:51:43.645Z,101002.11
2023-02-12T00:52:43.954Z,101002.31
2023-02-12T00:53:44.574Z,101002.81
2023-02-12T00:54:44.809Z,100999.78
2023-02-12T00:55:45.610Z,101004.44
2023-02-12T00:56:45.517Z,101010.41
2023-02-12T00:57:46.170Z,101007.92
2023-02-12T00:58:46.427Z,101007.08
2023-02-12T00:59:46.779Z,101005.06
2023-02-12T01:00:47.392Z,101005.13
2023-02-12T01:01:48.698Z,101006.44
2023-02-12T01:02:48.022Z,101002.84
2023-02-12T01:03:48.334Z,100999.59
2023-02-12T01:04:48.668Z,101002.1
2023-02-12T01:05:49.171Z,101003.79
2023-02-12T01:06:49.493Z,101006.73
2023-02-12T01:07:53.893Z,101009.01
2023-02-12T01:08:52.149Z,101007.7
2023-02-12T01:09:51.765Z,101009.16
2023-02-12T01:10:58.111Z,101012.67
2023-02-12T01:11:55.572Z,101018.38
2023-02-12T01:12:56.686Z,101019.99
2023-02-12T01:13:57.228Z,101020.95
2023-02-12T01:14:57.524Z,101024.46
2023-02-12T01:17:00.987Z,101028.28
2023-02-12T01:18:01.336Z,101024.8
2023-02-12T01:19:02.467Z,101026.62
2023-02-12T01:20:02.475Z,101027.61
2023-02-12T01:21:02.521Z,101031.36
2023-02-12T01:22:03.038Z,101030.2
2023-02-12T01:23:03.282Z,101030.12
2023-02-12T01:24:04.339Z,101032.77
2023-02-12T01:25:06.193Z,101041.13
2023-02-12T01:26:04.946Z,101041.34
2023-02-12T01:28:06.030Z,101037.41
2023-02-12T01:29:07.986Z,101035.14
2023-02-12T01:30:11.966Z,101036.38
2023-02-12T01:31:15.594Z,101037.93
2023-02-12T01:32:13.048Z,101036.84
2023-02-12T01:33:13.318Z,101038.89
2023-02-12T01:34:13.835Z,101042.92
2023-02-12T01:35:14.040Z,101038.75
2023-02-12T01:36:14.461Z,101041.64
2023-02-12T01:37:15.960Z,101043.83
2023-02-12T01:38:15.253Z,101047.6
2023-02-12T01:39:15.707Z,101046.55
2023-02-12T01:40:19.914Z,101050.34
2023-02-12T01:42:22.287Z,101050.12
2023-02-12T01:43:22.284Z,101056.09
2023-02-12T01:44:25.377Z,101056.38
2023-02-12T01:46:24.352Z,101059.17
2023-02-12T01:47:24.671Z,101069.42
2023-02-12T01:48:27.657Z,101071.61
2023-02-12T01:50:26.333Z,101080.9
2023-02-12T01:51:31.253Z,101085.91
2023-02-12T01:52:36.484Z,101088.45
2023-02-12T01:54:33.690Z,101100.12
2023-02-12T01:55:31.890Z,101096.58
2023-02-12T01:56:33.336Z,101097.3
2023-02-12T01:57:35.777Z,101094.08
2023-02-12T01:58:38.264Z,101102.25
2023-02-12T01:59:37.454Z,101098.58
2023-02-12T02:00:36.018Z,101095.82
2023-02-12T02:01:36.598Z,101099.97
2023-02-12T02:02:39.313Z,101101.88
2023-02-12T02:03:39.595Z,101108.51
2023-02-12T02:04:43.846Z,101108.81
2023-02-12T02:07:44.257Z,101106.64
2023-02-12T02:08:44.579Z,101110.88
2023-02-12T02:09:45.916Z,101108.98
2023-02-12T02:10:48.160Z,101114.64
2023-02-12T02:11:45.935Z,101115.44
2023-02-12T02:12:46.377Z,101118.52
2023-02-12T02:13:46.312Z,101118.33
2023-02-12T02:14:48.813Z,101115.47
2023-02-12T02:15:51.328Z,101110.59
2023-02-12T02:18:59.287Z,101114.92
2023-02-12T02:27:35.895Z,101116.1
2023-02-12T02:34:43.018Z,101128.59
2023-02-12T02:41:09.679Z,101137.8
2023-02-12T02:46:18.004Z,101132.81
2023-02-12T02:47:18.000Z,101130.92
2023-02-12T02:50:26.121Z,101125.34
2023-02-12T02:52:34.420Z,101131.77
2023-02-12T02:56:39.777Z,101129.56
2023-02-12T03:04:08.676Z,101149.27
2023-02-12T03:05:14.608Z,101148.84
2023-02-12T03:06:10.778Z,101153.98
2023-02-12T03:07:16.604Z,101154.44
2023-02-12T03:15:26.659Z,101164.77
2023-02-12T03:16:25.899Z,101165.44
2023-02-12T03:17:32.554Z,101165.08
2023-02-12T03:18:33.687Z,101165.59
2023-02-12T03:19:37.486Z,101168.27
2023-02-12T03:20:36.014Z,101167.48
2023-02-12T03:21:43.941Z,101167.14
2023-02-12T03:22:39.521Z,101166.22
2023-02-12T03:23:47.936Z,101171.8
2023-02-12T03:28:54.857Z,101177.8
2023-02-12T03:29:56.288Z,101186.84
2023-02-12T03:48:52.926Z,101213.62
2023-02-12T03:51:51.327Z,101215.44
2023-02-12T03:52:51.738Z,101214.14
2023-02-12T03:53:52.245Z,101226
2023-02-12T03:54:52.474Z,101221.3
2023-02-12T03:57:03.812Z,101218.2
2023-02-12T03:58:00.093Z,101219.84
2023-02-12T03:58:58.115Z,101226.64
2023-02-12T03:59:59.036Z,101221.48
2023-02-12T04:00:58.840Z,101225.69
2023-02-12T04:01:59.815Z,101237.16
2023-02-12T04:02:59.266Z,101228.77
2023-02-12T04:04:02.907Z,101224.89
2023-02-12T04:05:06.665Z,101226.86
2023-02-12T04:06:04.601Z,101234.07
2023-02-12T04:07:04.901Z,101239.01
2023-02-12T04:08:07.694Z,101234.76
2023-02-12T04:09:09.560Z,101228.07
2023-02-12T04:10:08.328Z,101222.25
2023-02-12T04:31:04.709Z,101244.91
2023-02-12T04:33:07.261Z,101254.09
2023-02-12T04:36:23.874Z,101252.91
2023-02-12T04:37:23.668Z,101254.53
2023-02-12T04:39:28.705Z,101253.14
2023-02-12T04:40:27.060Z,101260.73
2023-02-12T04:41:27.183Z,101259.66
2023-02-12T04:42:26.876Z,101274.24
2023-02-12T04:43:35.346Z,101272.5
2023-02-12T04:44:31.718Z,101275.94
2023-02-12T04:45:31.250Z,101270.66
2023-02-12T04:46:29.572Z,101276.7
2023-02-12T04:47:29.773Z,101260.31
2023-02-12T04:48:30.195Z,101275.29
2023-02-12T04:49:30.910Z,101280.59
2023-02-12T04:50:42.898Z,101287.34
2023-02-12T04:51:35.258Z,101284.78
2023-02-12T04:52:35.642Z,101280.96
2023-02-12T04:53:36.062Z,101288.36
2023-02-12T04:54:36.778Z,101284.8
2023-02-12T04:55:36.898Z,101278.77
2023-02-12T04:56:37.259Z,101277.42
2023-02-12T04:57:37.644Z,101280.89
2023-02-12T04:58:37.951Z,101280.27
2023-02-12T04:59:38.355Z,101285.9
2023-02-12T05:00:38.763Z,101285.3
2023-02-12T05:01:40.813Z,101285.56
2023-02-12T05:02:39.922Z,101290.34
2023-02-12T05:03:39.826Z,101286.36
2023-02-12T05:04:40.471Z,101289.48
2023-02-12T05:05:40.648Z,101285.91
2023-02-12T05:06:41.684Z,101288.51
2023-02-12T05:07:41.450Z,101288.2
2023-02-12T05:08:41.798Z,101287.47
2023-02-12T05:09:42.413Z,101288.25
2023-02-12T05:10:42.608Z,101291.41
2023-02-12T05:11:43.249Z,101287.91
2023-02-12T05:12:43.363Z,101285.48
2023-02-12T05:13:43.777Z,101290.41
2023-02-12T05:14:44.083Z,101288.5
2023-02-12T05:15:44.528Z,101287.03
2023-02-12T05:16:45.028Z,101285.83
2023-02-12T05:17:45.435Z,101295.09
2023-02-12T05:18:45.753Z,101299.02
2023-02-12T05:19:48.323Z,101300.8
2023-02-12T05:20:46.345Z,101288.78
2023-02-12T05:21:49.625Z,101284.67
2023-02-12T05:22:51.001Z,101284.83
2023-02-12T05:23:49.789Z,101280.77
2023-02-12T05:24:48.874Z,101284.37
2023-02-12T05:25:49.283Z,101289.46
2023-02-12T05:26:50.622Z,101284.39
2023-02-12T05:27:50.120Z,101284.86
2023-02-12T05:28:50.333Z,101283.53
2023-02-12T05:29:50.743Z,101286.8
2023-02-12T05:30:51.230Z,101291.19
2023-02-12T05:31:51.822Z,101294.55
2023-02-12T05:32:51.971Z,101293.39
2023-02-12T05:33:52.513Z,101291.52
2023-02-12T05:34:52.729Z,101290.69
2023-02-12T05:35:53.423Z,101293.25
2023-02-12T05:36:54.164Z,101289.31
2023-02-12T05:37:53.872Z,101289.89
2023-02-12T05:38:58.181Z,101292.47
2023-02-12T05:39:55.624Z,101295.64
2023-02-12T05:41:08.228Z,101290.28
2023-02-12T05:42:00.654Z,101303.21
2023-02-12T05:43:00.828Z,101309.67
2023-02-12T05:44:03.749Z,101315.9
2023-02-12T05:45:01.698Z,101316.12
2023-02-12T05:46:03.778Z,101326.22
2023-02-12T05:47:02.530Z,101319.35
2023-02-12T05:48:02.852Z,101320.61
2023-02-12T05:49:03.287Z,101322.48
2023-02-12T05:50:03.881Z,101323
2023-02-12T05:51:10.643Z,101321.91
2023-02-12T05:52:08.093Z,101314.98
2023-02-12T05:53:08.353Z,101322.97
2023-02-12T05:54:09.842Z,101326.22
2023-02-12T05:55:09.252Z,101324.57
2023-02-12T05:56:17.607Z,101317.89
2023-02-12T05:57:10.079Z,101316.78
2023-02-12T05:58:10.284Z,101318.38
2023-02-12T05:59:17.272Z,101323.9
2023-02-12T06:00:15.624Z,101325.83
2023-02-12T06:01:24.937Z,101323.02
2023-02-12T06:02:17.352Z,101327.8
2023-02-12T06:03:17.804Z,101328.27
2023-02-12T06:04:22.258Z,101324.34
2023-02-12T06:05:19.723Z,101327.06
2023-02-12T06:06:20.163Z,101327.48
2023-02-12T06:07:20.705Z,101330.12
2023-02-12T06:08:20.996Z,101329.48
2023-02-12T06:09:21.426Z,101333.34
2023-02-12T06:10:21.646Z,101327.6
2023-02-12T06:11:22.586Z,101328.7
2023-02-12T06:12:22.566Z,101324.45
2023-02-12T06:13:22.802Z,101327.97
2023-02-12T06:14:23.255Z,101329.11
2023-02-12T06:15:23.625Z,101331.98
2023-02-12T06:16:27.057Z,101335.7
2023-02-12T06:17:24.536Z,101337.17
2023-02-12T06:18:25.872Z,101334.42
2023-02-12T06:19:25.381Z,101330.5
2023-02-12T06:20:25.576Z,101327.1
2023-02-12T06:21:27.190Z,101331.52
2023-02-12T06:22:28.383Z,101334.47
2023-02-12T06:23:26.724Z,101338.55
2023-02-12T06:24:27.161Z,101338.41
2023-02-12T06:25:27.555Z,101338.38
2023-02-12T06:26:28.286Z,101334.39
2023-02-12T06:27:28.506Z,101332.79
2023-02-12T06:28:28.729Z,101336.16
2023-02-12T06:29:29.102Z,101340.14
2023-02-12T06:30:30.202Z,101342.91
2023-02-12T06:31:33.040Z,101346.85
2023-02-12T06:32:31.000Z,101350.25
2023-02-12T06:33:31.505Z,101351.28
2023-02-12T06:34:32.325Z,101348.77
2023-02-12T06:35:35.288Z,101353.62
2023-02-12T06:36:32.842Z,101350.53
2023-02-12T06:37:33.126Z,101356.62
2023-02-12T06:38:37.626Z,101356.33
2023-02-12T06:39:35.045Z,101358.23
2023-02-12T06:40:35.349Z,101356.79
2023-02-12T06:41:35.785Z,101359.45
2023-02-12T06:42:36.288Z,101367.66
2023-02-12T06:43:36.710Z,101365.7
2023-02-12T06:44:37.322Z,101367.52
2023-02-12T06:45:37.559Z,101370.3
2023-02-12T06:46:37.870Z,101365.52
2023-02-12T06:47:38.966Z,101361.67
2023-02-12T06:48:39.146Z,101365.21
2023-02-12T06:49:40.109Z,101363.91
2023-02-12T06:50:40.019Z,101368.38
2023-02-12T06:51:41.647Z,101366.77
2023-02-12T06:52:40.847Z,101364.81
2023-02-12T06:53:42.006Z,101366.96
2023-02-12T06:54:41.911Z,101361.53
2023-02-12T06:55:41.998Z,101363.29
2023-02-12T06:56:42.403Z,101364.55
2023-02-12T06:57:42.948Z,101364.86
2023-02-12T06:58:45.316Z,101371.39
2023-02-12T06:59:43.360Z,101372.09
2023-02-12T07:00:43.909Z,101375.55
2023-02-12T07:01:44.597Z,101382.7
2023-02-12T07:02:44.813Z,101379.78
2023-02-12T07:03:49.035Z,101376.64
2023-02-12T07:04:46.342Z,101379.48
2023-02-12T07:05:46.790Z,101371.15
2023-02-12T07:06:47.213Z,101375.8
2023-02-12T07:07:47.741Z,101377.7
2023-02-12T07:08:48.729Z,101383.31
2023-02-12T07:09:48.867Z,101380.55
2023-02-12T07:10:49.178Z,101379.16
2023-02-12T07:11:49.276Z,101376.55
2023-02-12T07:12:49.576Z,101382.08
2023-02-12T07:13:49.902Z,101378.2
2023-02-12T07:14:50.327Z,101379.12
2023-02-12T07:15:50.886Z,101380.45
2023-02-12T07:16:51.205Z,101379.16
2023-02-12T07:17:51.570Z,101385.01
2023-02-12T07:18:51.887Z,101388.72
2023-02-12T07:19:52.308Z,101384.94
2023-02-12T07:20:52.696Z,101385.7
2023-02-12T07:21:53.049Z,101385.37
2023-02-12T07:22:53.549Z,101385.83
2023-02-12T07:23:53.817Z,101390.03
2023-02-12T07:24:54.190Z,101390.38
2023-02-12T07:26:02.816Z,101390.25
2023-02-12T07:26:55.231Z,101390.55
2023-02-12T07:28:57.844Z,101392.66
2023-02-12T07:29:56.366Z,101399.06
2023-02-12T07:30:56.807Z,101392.7
2023-02-12T07:31:57.275Z,101393.55
2023-02-12T07:32:57.832Z,101391.67
2023-02-12T07:33:59.351Z,101390.22
2023-02-12T07:34:58.444Z,101384.9
2023-02-12T07:36:04.598Z,101389.94
2023-02-12T07:37:02.032Z,101384.01
2023-02-12T07:38:02.565Z,101385.33
2023-02-12T07:39:03.356Z,101382.81
2023-02-12T07:40:03.597Z,101379.55
2023-02-12T07:41:14.175Z,101375.62
2023-02-12T07:42:06.670Z,101368.38
2023-02-12T07:43:07.111Z,101366.29
2023-02-12T07:44:10.911Z,101364.06
2023-02-12T07:45:09.977Z,101363.84
2023-02-12T07:46:16.853Z,101364.48
2023-02-12T07:47:09.391Z,101367.97
2023-02-12T07:48:09.809Z,101367.06
2023-02-12T07:49:14.115Z,101366.58
2023-02-12T07:50:11.962Z,101366.27
2023-02-12T07:51:17.512Z,101366.14
2023-02-12T07:52:14.952Z,101371
2023-02-12T07:53:15.348Z,101368.48
2023-02-12T07:54:16.091Z,101367.16
2023-02-12T07:55:16.811Z,101370.09
2023-02-12T07:56:19.598Z,101366
2023-02-12T07:57:16.904Z,101366.8
2023-02-12T07:58:17.552Z,101367.22
2023-02-12T07:59:19.094Z,101366.09
2023-02-12T08:00:21.850Z,101368.28
2023-02-12T08:01:27.979Z,101372.05
2023-02-12T08:02:20.472Z,101370.77
2023-02-12T08:03:20.870Z,101372.44
2023-02-12T08:04:24.413Z,101376.78
2023-02-12T08:05:21.890Z,101373.97
2023-02-12T08:06:25.192Z,101374.62
2023-02-12T08:07:22.743Z,101372.41
2023-02-12T08:08:23.149Z,101377.25
2023-02-12T08:09:26.124Z,101374.36
2023-02-12T08:10:23.870Z,101378.72
2023-02-12T08:11:26.145Z,101375.73
2023-02-12T08:12:24.919Z,101373.83
2023-02-12T08:13:25.226Z,101372.28
2023-02-12T08:14:27.335Z,101376.95
2023-02-12T08:15:25.953Z,101378.02
2023-02-12T08:16:28.189Z,101383.32
2023-02-12T08:17:26.782Z,101377.69
2023-02-12T08:18:27.216Z,101380.52
2023-02-12T08:19:27.617Z,101384.88
2023-02-12T08:20:28.206Z,101388.58
2023-02-12T08:21:28.865Z,101392.92
2023-02-12T08:22:28.870Z,101396.93
2023-02-12T08:23:29.488Z,101398.73
2023-02-12T08:24:30.681Z,101400.8
2023-02-12T08:25:29.930Z,101395.57
2023-02-12T08:26:32.790Z,101396.98
2023-02-12T08:27:30.853Z,101398.82
2023-02-12T08:28:31.339Z,101398.19
2023-02-12T08:29:31.575Z,101398.09
2023-02-12T08:30:32.111Z,101401.09
2023-02-12T08:31:39.021Z,101402.35
2023-02-12T08:32:36.418Z,101397.84
2023-02-12T08:33:37.026Z,101400.48
2023-02-12T08:34:37.249Z,101400.75
2023-02-12T08:35:37.769Z,101400.02
2023-02-12T08:36:39.915Z,101394.02
2023-02-12T08:37:38.504Z,101396.12
2023-02-12T08:38:40.330Z,101398.38
2023-02-12T08:39:39.326Z,101403.98
2023-02-12T08:40:39.776Z,101404.54
2023-02-12T08:41:40.271Z,101411.53
2023-02-12T08:42:40.477Z,101412.79
2023-02-12T08:43:42.120Z,101411.54
2023-02-12T08:44:43.060Z,101411.95
2023-02-12T08:45:42.623Z,101406.7
2023-02-12T08:46:47.471Z,101409.7
2023-02-12T08:47:44.905Z,101405.03
2023-02-12T08:48:45.832Z,101398.98
2023-02-12T08:49:46.200Z,101401.14
2023-02-12T08:50:46.309Z,101404.48
2023-02-12T08:51:48.899Z,101406.74
2023-02-12T08:52:46.575Z,101410.48
2023-02-12T08:53:51.503Z,101410.44
2023-02-12T08:54:49.046Z,101415.49
2023-02-12T08:55:50.387Z,101418.58
2023-02-12T08:56:49.982Z,101421.17
2023-02-12T08:57:49.883Z,101421.77
2023-02-12T08:58:50.201Z,101418.14
2023-02-12T08:59:50.623Z,101416.98
2023-02-12T09:00:50.950Z,101417.3
2023-02-12T09:01:52.523Z,101414.55
2023-02-12T09:02:51.546Z,101408.56
2023-02-12T09:03:52.699Z,101406.38
2023-02-12T09:04:52.182Z,101405.16
2023-02-12T09:05:52.409Z,101404.84
2023-02-12T09:06:53.552Z,101400.72
2023-02-12T09:07:53.249Z,101400.31
2023-02-12T09:08:54.572Z,101397.08
2023-02-12T09:09:53.864Z,101397.62
2023-02-12T09:10:54.072Z,101394.48
2023-02-12T09:11:54.897Z,101395.12
2023-02-12T09:12:54.695Z,101395.34
2023-02-12T09:13:55.109Z,101392.62
2023-02-12T09:14:55.837Z,101393.95
2023-02-12T09:15:56.250Z,101396.66
2023-02-12T09:16:56.083Z,101399.01
2023-02-12T09:17:56.385Z,101394.09
2023-02-12T09:18:57.299Z,101392.72
2023-02-12T09:19:57.202Z,101393.48
2023-02-12T09:21:02.746Z,101397.61
2023-02-12T09:22:00.190Z,101390.22
2023-02-12T09:23:03.377Z,101395.97
2023-02-12T09:24:02.063Z,101394.11
2023-02-12T09:25:01.252Z,101392.5
2023-02-12T09:26:05.760Z,101394.98
2023-02-12T09:27:03.084Z,101396.39
2023-02-12T09:28:04.377Z,101398.56
2023-02-12T09:29:04.964Z,101403.88
2023-02-12T09:30:04.545Z,101411.45
2023-02-12T09:31:09.430Z,101416.48
2023-02-12T09:32:07.035Z,101421.91
2023-02-12T09:33:10.207Z,101421.33
2023-02-12T09:34:07.844Z,101421.2
2023-02-12T09:35:08.572Z,101419.88
2023-02-12T09:36:11.849Z,101419.18
2023-02-12T09:37:09.169Z,101413.46
2023-02-12T09:38:09.976Z,101410.54
2023-02-12T09:39:09.921Z,101410.81
2023-02-12T09:40:20.087Z,101404.94
2023-02-12T09:51:45.724Z,101399.22
2023-02-12T09:52:44.072Z,101402.65
2023-02-12T09:53:46.686Z,101404.73
2023-02-12T09:54:45.265Z,101402.17
2023-02-12T09:55:44.538Z,101395.06
2023-02-12T09:56:56.961Z,101397.63
2023-02-12T09:57:49.375Z,101392.91
2023-02-12T09:58:55.823Z,101392.08
2023-02-12T09:59:59.851Z,101392.62
2023-02-12T10:00:57.595Z,101392.66
2023-02-12T10:01:58.851Z,101393.06
2023-02-12T10:03:05.123Z,101390.92
2023-02-12T10:04:05.408Z,101396.97
2023-02-12T10:05:14.722Z,101395.07
2023-02-12T10:06:15.850Z,101389.27
2023-02-12T10:30:22.650Z,101356.23
2023-02-12T10:32:30.558Z,101356.3
2023-02-12T10:34:26.519Z,101356.19
2023-02-12T10:35:25.200Z,101359.22
2023-02-12T10:40:34.516Z,101364.09
2023-02-12T10:41:32.971Z,101370.69
2023-02-12T10:43:36.980Z,101372.83
2023-02-12T10:44:37.297Z,101376.06
2023-02-12T10:45:39.348Z,101371.16
2023-02-12T10:46:38.512Z,101366.8
2023-02-12T10:47:38.245Z,101372.69
2023-02-12T10:48:42.245Z,101370.77
2023-02-12T10:49:39.646Z,101366.69
2023-02-12T10:53:48.526Z,101366.77
2023-02-12T10:54:49.341Z,101369.62
2023-02-12T10:55:49.551Z,101366.12
2023-02-12T10:56:49.878Z,101361.86
2023-02-12T10:57:50.094Z,101364.09
2023-02-12T10:59:56.058Z,101355.45
2023-02-12T11:01:57.740Z,101357.45
2023-02-12T11:04:01.798Z,101355.48
2023-02-12T11:06:16.857Z,101359.86
2023-02-12T11:07:06.525Z,101353.84
2023-02-12T11:08:05.507Z,101351.8
2023-02-12T11:09:04.899Z,101346.79
2023-02-12T11:14:20.367Z,101324
2023-02-12T11:15:20.769Z,101320
2023-02-12T11:19:28.314Z,101310.02
2023-02-12T11:21:27.528Z,101303.52
2023-02-12T11:22:28.347Z,101296.87
2023-02-12T11:23:31.336Z,101299.62
2023-02-12T11:26:34.973Z,101292.5
2023-02-12T11:27:35.335Z,101292.67
2023-02-12T11:28:37.116Z,101294.28
2023-02-12T11:29:35.958Z,101282.02
2023-02-12T11:30:36.251Z,101288.81
2023-02-12T11:31:36.809Z,101296.89
2023-02-12T11:32:37.525Z,101306.84
2023-02-12T11:33:37.802Z,101311.42
2023-02-12T11:34:38.045Z,101309.26
2023-02-12T11:36:46.211Z,101293.05
2023-02-12T11:37:45.103Z,101295.74
2023-02-12T11:39:50.867Z,101287.95
2023-02-12T11:40:48.117Z,101293.6
2023-02-12T11:43:53.894Z,101293.9
2023-02-12T11:44:57.030Z,101288.27
2023-02-12T11:45:55.747Z,101291.09
2023-02-12T11:47:57.181Z,101287.37
2023-02-12T11:48:58.208Z,101287.22
2023-02-12T11:50:04.950Z,101284.36
2023-02-12T11:51:00.490Z,101285.86
2023-02-12T11:52:00.583Z,101286.45
2023-02-12T11:54:05.234Z,101293.35
2023-02-12T11:57:06.577Z,101288.3
2023-02-12T12:04:20.544Z,101275.07
2023-02-12T12:05:22.275Z,101273.66
2023-02-12T12:18:09.990Z,101260.98
2023-02-12T12:20:11.524Z,101267.62
2023-02-12T12:21:16.193Z,101267.95
2023-02-12T12:24:20.285Z,101269.7
2023-02-12T12:32:31.479Z,101262.89
2023-02-12T12:34:34.253Z,101258.23
2023-02-12T12:56:28.251Z,101263.98
2023-02-12T13:27:42.209Z,101228.62
2023-02-12T13:28:44.862Z,101226.92
2023-02-12T13:33:58.083Z,101214.05
2023-02-12T13:34:57.522Z,101213.97
2023-02-12T13:36:00.691Z,101210.5
2023-02-12T13:37:01.412Z,101211.55
2023-02-12T13:38:01.938Z,101205.66
2023-02-12T13:40:09.089Z,101208.3
2023-02-12T13:41:09.937Z,101195.88
2023-02-12T13:59:53.370Z,101202.2
2023-02-12T14:01:54.566Z,101196.69
2023-02-12T14:02:54.733Z,101194.98
2023-02-12T14:03:55.449Z,101192.52
2023-02-12T14:05:00.769Z,101186.07
2023-02-12T14:07:10.313Z,101187.3
2023-02-12T14:08:05.772Z,101188.46
2023-02-12T14:09:11.364Z,101185.65
2023-02-12T14:10:05.933Z,101184.91
2023-02-12T14:14:13.238Z,101187.03
2023-02-12T14:23:28.849Z,101160.31
2023-02-12T14:31:49.570Z,101147.68
2023-02-12T14:52:43.964Z,101137.95
2023-02-12T14:53:41.979Z,101143.1
2023-02-12T14:54:45.738Z,101135.92
2023-02-12T14:55:47.383Z,101133.25
2023-02-12T14:56:49.260Z,101129.7
2023-02-12T14:57:47.253Z,101131.99
2023-02-12T14:58:48.222Z,101124.39
2023-02-12T14:59:49.050Z,101126.09
2023-02-12T15:00:51.178Z,101130.57
2023-02-12T15:01:53.072Z,101128.3
2023-02-12T15:02:57.469Z,101118.69
2023-02-12T15:03:58.186Z,101119.78
2023-02-12T15:05:02.445Z,101119.16
2023-02-12T15:09:12.464Z,101112
2023-02-12T15:12:24.887Z,101109.14
2023-02-12T15:14:28.170Z,101118.69
2023-02-12T15:15:33.901Z,101118.46
2023-02-12T15:17:35.035Z,101114.81
2023-02-12T15:20:54.917Z,101106.17
2023-02-12T15:21:43.066Z,101105.45
2023-02-12T15:22:43.324Z,101110.05
2023-02-12T15:23:46.016Z,101107.38
2023-02-12T15:24:43.485Z,101109.66
2023-02-12T15:25:45.001Z,101104.44
2023-02-12T15:27:48.830Z,101100.97
2023-02-12T15:28:50.170Z,101098.73
2023-02-12T15:29:50.994Z,101096.14
2023-02-12T15:30:49.190Z,101091.08
2023-02-12T15:31:55.546Z,101095.47
2023-02-12T15:32:55.029Z,101095.98
2023-02-12T15:33:55.586Z,101096.43
2023-02-12T15:34:54.506Z,101096.02
2023-02-12T15:35:54.962Z,101102.41
2023-02-12T15:36:58.426Z,101095.83
2023-02-12T15:37:58.008Z,101095.77
2023-02-12T15:39:05.081Z,101092.83
2023-02-12T15:40:00.587Z,101097.39
2023-02-12T15:41:00.279Z,101093.83
2023-02-12T15:41:58.216Z,101092.88
2023-02-12T15:43:06.233Z,101091.07
2023-02-12T15:47:15.378Z,101089.19
2023-02-12T15:49:19.998Z,101083.34
2023-02-12T15:50:18.058Z,101080.02
2023-02-12T15:52:27.186Z,101078.97
2023-02-12T15:53:28.937Z,101084.14
2023-02-12T15:54:27.831Z,101078.98
2023-02-12T15:55:28.547Z,101081.66
2023-02-12T15:56:27.932Z,101076.85
2023-02-12T15:57:27.626Z,101071.3
2023-02-12T15:59:30.198Z,101075.91
2023-02-12T16:01:35.115Z,101079.2
2023-02-12T16:02:33.610Z,101077.64
2023-02-12T16:03:36.381Z,101069.45
2023-02-12T16:04:36.293Z,101065.45
2023-02-12T16:05:35.520Z,101066.02
2023-02-12T16:06:36.293Z,101070.28
2023-02-12T16:07:37.517Z,101070.5
2023-02-12T16:08:36.099Z,101067.23
2023-02-12T16:09:37.129Z,101066.16
2023-02-12T16:10:42.564Z,101064.92
2023-02-12T16:11:44.138Z,101063.28
2023-02-12T16:12:42.271Z,101059.38
2023-02-12T16:14:49.969Z,101056.73
2023-02-12T16:16:52.542Z,101044.8
2023-02-12T16:17:50.818Z,101041.89
2023-02-12T16:23:07.357Z,101031.59
2023-02-12T16:26:06.435Z,101023.34
2023-02-12T16:29:17.209Z,101013.95
2023-02-12T16:31:16.576Z,101013.33
2023-02-12T16:40:35.292Z,101006.91
2023-02-12T16:42:34.585Z,101014.03
2023-02-12T16:43:34.999Z,101016.26
2023-02-12T16:44:35.428Z,101014.45
2023-02-12T16:45:37.862Z,101010.94
2023-02-12T16:47:37.184Z,101011.78
2023-02-12T16:48:48.899Z,101009.1
2023-02-12T16:51:47.865Z,101016.03
2023-02-12T16:52:47.047Z,101016.41
2023-02-12T16:53:47.525Z,101017.72
2023-02-12T16:54:47.687Z,101018.2
2023-02-12T16:55:47.941Z,101018.81
2023-02-12T16:56:48.996Z,101020.23
2023-02-12T16:57:48.626Z,101016.84
2023-02-12T16:58:51.936Z,101020.07
2023-02-12T16:59:49.343Z,101020.31
2023-02-12T17:00:49.696Z,101019.91
2023-02-12T17:02:50.831Z,101014.56
2023-02-12T17:03:52.046Z,101011.97
2023-02-12T17:04:51.432Z,101012.45
2023-02-12T17:05:52.771Z,101006.16
2023-02-12T17:06:52.261Z,101007.34
2023-02-12T17:07:52.370Z,101013.16
2023-02-12T17:08:52.887Z,101008.44
2023-02-12T17:09:52.998Z,101013.59
2023-02-12T17:10:53.309Z,101003.59
2023-02-12T17:11:53.653Z,101004.42
2023-02-12T17:12:57.011Z,100999.07
2023-02-12T17:13:56.120Z,101003.56
2023-02-12T17:14:54.754Z,100997.17
2023-02-12T17:16:04.298Z,101008.88
2023-02-12T17:16:56.806Z,101006.5
2023-02-12T17:17:57.153Z,101006.83
2023-02-12T17:18:57.471Z,101002.02
2023-02-12T17:19:57.900Z,101003.39
2023-02-12T17:21:01.391Z,101005.63
2023-02-12T17:21:59.080Z,101008.98
2023-02-12T17:23:01.995Z,101004.47
2023-02-12T17:23:59.529Z,101003.2
2023-02-12T17:24:59.867Z,100995.84
2023-02-12T17:26:00.629Z,100995.97
2023-02-12T17:27:02.434Z,100985.66
2023-02-12T17:28:00.981Z,100982.61
2023-02-12T17:29:01.222Z,100984.54
2023-02-12T17:30:01.870Z,100981.66
2023-02-12T17:31:05.062Z,100981.55
2023-02-12T17:32:02.480Z,100978.5
2023-02-12T17:33:04.036Z,100980.34
2023-02-12T17:34:04.232Z,100985.42
2023-02-12T17:35:03.490Z,100980.97